Overview Statistics Trail Chart Weather Telemetry Raw packets
 

This is the latest recevied telemetry packets stored in our database for station/object DG1FFC-12. If no packets are shown the sender has not sent any telemetry packets the latest 10 day(s).

Telemetry packets is used to share measurements like repeteater parameters, battery voltage, radiation readings (or any other measurements).

<< 1 2 >>
Time Press* Temp.in* Hum* QNH* Temp.out*
1777920657 988.4 hPa 33.1 C deg 23 % 1018.2 hPa 0 C deg
1777918842 988.5 hPa 33.2 C deg 23.1 % 1018.2 hPa 0 C deg
1777917032 988.5 hPa 33.2 C deg 23.5 % 1018.3 hPa 0 C deg
1777915212 988.3 hPa 33.2 C deg 23.7 % 1018.1 hPa 0 C deg
1777913397 988.5 hPa 32.1 C deg 26.5 % 1018.4 hPa 0 C deg
1777911582 989.3 hPa 26.6 C deg 44.7 % 1019.8 hPa 0 C deg
1777260942 998.6 hPa 24 C deg 29.3 % 1029.6 hPa 0 C deg
1777259127 998.4 hPa 24.2 C deg 29.1 % 1029.4 hPa 0 C deg
1777257312 998.5 hPa 24.4 C deg 28.9 % 1029.4 hPa 0 C deg
1777255497 998.4 hPa 24.8 C deg 28.8 % 1029.3 hPa 0 C deg
1777253682 998.5 hPa 24.5 C deg 29.4 % 1029.5 hPa 0 C deg
1777251867 998.8 hPa 24.6 C deg 29.6 % 1029.7 hPa 0 C deg
1777250051 998.8 hPa 24.7 C deg 29.6 % 1029.7 hPa 0 C deg
1777248236 998.8 hPa 24.8 C deg 29.5 % 1029.7 hPa 0 C deg
1777246421 998.9 hPa 25 C deg 29.5 % 1029.8 hPa 0 C deg
1777244606 999 hPa 25 C deg 29.8 % 1029.9 hPa 0 C deg
1777242791 998.8 hPa 25.2 C deg 29.4 % 1029.7 hPa 0 C deg
1777240976 998.8 hPa 25.4 C deg 29.4 % 1029.6 hPa 0 C deg
1777239161 998.8 hPa 25.5 C deg 29.4 % 1029.7 hPa 0 C deg
1777237346 998.8 hPa 25.7 C deg 29.9 % 1029.6 hPa 0 C deg
1777235531 998.7 hPa 25.6 C deg 30.4 % 1029.5 hPa 0 C deg
1777233716 998.6 hPa 25.6 C deg 30.4 % 1029.4 hPa 0 C deg
1777231901 998.5 hPa 25.2 C deg 30.8 % 1029.4 hPa 0 C deg
1777230086 998.2 hPa 24.8 C deg 31.7 % 1029.1 hPa 0 C deg
1777228271 997.9 hPa 23.6 C deg 34.2 % 1028.9 hPa 0 C deg
*Used Equation Coefficients:
Press: 0, 1, 0
Temp.in: 0, 1, 0
Hum: 0, 1, 0
QNH: 0, 1, 0
Temp.out: 0, 1, 0

  • The parameter names for the analog channels will be Value1, Value2, Value3 (up to Value5) if station has not sent a PARAM-packet that specifies the parameter names for each analog channel.
  • Each analog value is a decimal number between 000 and 255 (according to APRS specifications). The receiver use the telemetry equation coefficientsto to restore the original sensor values. If no EQNS-packet with equation coefficients is sent we will show the values as is (this corresponds to the equation coefficients a=0, b=1 and c=0).
    The sent equation coefficients is used in the equation: a * value2 + b * value + c.
  • The units for the analog values will not be shown if station has not sent a UNIT-packet specifying what unit's to use.
  • The parameter names for the digital bits will be Bit1, Bit2, Bit3 (up to Bit8) if station has not sent a PARAM-packet that specifies the parameter names for each digital bit.
  • All bit labels will be named "On" if station has not sent a UNIT-packet that specifies the label of each bit.
  • A bit is considered to be On when the bit is 1 if station has not sent a BITS-packet that specifies another "Bit sense" (a BITS-packet specify the state of the bits that match the BIT labels)